Time,TemperatureF,DewpointF,PressureIn,WindDirection,WindDirectionDegrees,WindSpeedMPH,WindSpeedGustMPH,Humidity,HourlyPrecipIn,Conditions,Clouds,dailyrainin,SoftwareType,DateUTC
2013-02-10 00:00:00,37.8,36.0,29.93,SSW,199,1.0,1.0,93,0.12,,---,0.00,VWS V14.01,2013-02-10 06:00:00,
2013-02-10 00:05:00,37.9,36.1,29.93,SSW,200,2.0,4.0,93,0.13,,---,0.01,VWS V14.01,2013-02-10 06:05:00,
2013-02-10 00:10:00,37.9,36.1,29.93,SW,217,2.0,4.0,93,0.13,,---,0.01,VWS V14.01,2013-02-10 06:10:00,
2013-02-10 00:15:00,37.9,36.1,29.92,South,179,1.0,5.0,93,0.14,,---,0.02,VWS V14.01,2013-02-10 06:15:00,
2013-02-10 00:20:00,37.9,36.1,29.92,SSE,162,1.0,8.0,93,0.15,,---,0.03,VWS V14.01,2013-02-10 06:20:00,
2013-02-10 00:25:00,38.0,36.2,29.92,South,175,2.0,8.0,93,0.15,,---,0.03,VWS V14.01,2013-02-10 06:25:00,
2013-02-10 00:30:00,38.0,36.4,29.92,South,180,1.0,8.0,94,0.18,,---,0.06,VWS V14.01,2013-02-10 06:30:00,
2013-02-10 01:00:00,38.6,37.0,29.90,SSE,158,3.0,9.0,94,0.15,,---,0.09,VWS V14.01,2013-02-10 07:00:00,
2013-02-10 01:30:00,38.6,37.0,29.87,South,180,3.0,10.0,94,0.11,,---,0.11,VWS V14.01,2013-02-10 07:30:00,
2013-02-10 02:00:00,38.7,37.1,29.86,SSE,158,2.0,7.0,94,0.08,,---,0.14,VWS V14.01,2013-02-10 08:00:00,
2013-02-10 02:30:00,38.8,37.0,29.85,SSE,158,2.0,9.0,93,0.05,,---,0.14,VWS V14.01,2013-02-10 08:30:00,
2013-02-10 03:00:00,39.2,37.1,29.84,SSE,158,2.0,7.0,92,0.03,,---,0.14,VWS V14.01,2013-02-10 09:00:00,
2013-02-10 03:30:00,39.4,37.0,29.83,SSE,158,2.0,7.0,91,0.01,,---,0.15,VWS V14.01,2013-02-10 09:30:00,
2013-02-10 04:00:00,39.6,37.5,29.80,SSE,158,1.0,7.0,92,0.01,,---,0.15,VWS V14.01,2013-02-10 10:00:00,
2013-02-10 04:30:00,40.2,37.8,29.77,SSE,158,1.0,8.0,91,0.01,,---,0.15,VWS V14.01,2013-02-10 10:30:00,
2013-02-10 05:00:00,40.9,38.2,29.76,SSE,158,3.0,10.0,90,0.00,,---,0.15,VWS V14.01,2013-02-10 11:00:00,
2013-02-10 05:30:00,41.6,38.6,29.74,SSE,158,2.0,9.0,89,0.00,,---,0.15,VWS V14.01,2013-02-10 11:30:00,
2013-02-10 06:00:00,42.2,38.9,29.74,SSE,158,2.0,9.0,88,0.00,,---,0.15,VWS V14.01,2013-02-10 12:00:00,
2013-02-10 06:30:00,43.3,39.7,29.73,South,180,3.0,11.0,87,0.00,,---,0.15,VWS V14.01,2013-02-10 12:30:00,
2013-02-10 07:00:00,43.3,40.6,29.71,SSE,158,3.0,12.0,90,0.00,,---,0.15,VWS V14.01,2013-02-10 13:00:00,
2013-02-10 07:30:00,43.7,40.7,29.71,SSE,158,3.0,10.0,89,0.02,,---,0.17,VWS V14.01,2013-02-10 13:30:00,
2013-02-10 08:00:00,43.3,41.1,29.72,South,180,1.0,9.0,92,0.08,,---,0.23,VWS V14.01,2013-02-10 14:00:00,
2013-02-10 08:30:00,43.0,41.4,29.72,South,180,2.0,9.0,94,0.18,,---,0.33,VWS V14.01,2013-02-10 14:30:00,
2013-02-10 09:00:00,43.8,42.5,29.69,SSE,158,3.0,13.0,95,0.28,,---,0.45,VWS V14.01,2013-02-10 15:00:00,
2013-02-10 09:30:00,44.4,43.1,29.66,SSE,158,5.0,18.0,95,0.27,,---,0.50,VWS V14.01,2013-02-10 15:30:00,
2013-02-10 10:00:00,45.6,44.2,29.62,South,180,6.0,17.0,95,0.18,,---,0.51,VWS V14.01,2013-02-10 16:00:00,
2013-02-10 10:36:00,47.1,45.5,29.60,NW,307,3.0,6.0,94,0.05,,---,0.50,VWS V14.01,2013-02-10 16:36:00,
2013-02-10 10:41:00,47.2,45.6,29.60,SSE,167,4.0,19.0,94,0.05,,---,0.50,VWS V14.01,2013-02-10 16:41:00,
2013-02-10 10:46:00,47.3,45.7,29.61,East,86,5.0,19.0,94,0.05,,---,0.50,VWS V14.01,2013-02-10 16:46:00,
2013-02-10 10:51:00,47.5,45.9,29.60,SSW,192,2.0,19.0,94,0.05,,---,0.50,VWS V14.01,2013-02-10 16:51:00,
2013-02-10 10:56:00,47.7,46.1,29.60,ESE,116,1.0,19.0,94,0.05,,---,0.50,VWS V14.01,2013-02-10 16:56:00,
2013-02-10 11:01:00,48.1,46.2,29.60,SSE,163,8.0,12.0,93,0.00,,---,0.50,VWS V14.01,2013-02-10 17:01:00,
2013-02-10 11:06:00,48.5,46.6,29.60,ENE,60,7.0,14.0,93,0.00,,---,0.50,VWS V14.01,2013-02-10 17:06:00,
2013-02-10 11:11:00,48.9,46.7,29.60,South,184,10.0,13.0,92,0.00,,---,0.50,VWS V14.01,2013-02-10 17:11:00,
2013-02-10 11:16:00,49.2,46.7,29.60,SSW,193,7.0,13.0,91,0.00,,---,0.50,VWS V14.01,2013-02-10 17:16:00,
2013-02-10 11:21:00,49.2,46.4,29.60,SSE,151,4.0,13.0,90,0.00,,---,0.50,VWS V14.01,2013-02-10 17:21:00,
2013-02-10 11:26:00,49.0,46.2,29.59,SSE,160,3.0,13.0,90,0.00,,---,0.50,VWS V14.01,2013-02-10 17:26:00,
2013-02-10 11:30:00,49.0,46.2,29.59,South,177,11.0,19.0,90,0.00,,---,0.50,VWS V14.01,2013-02-10 17:30:00,
2013-02-10 11:31:00,49.0,46.2,29.59,South,178,0.0,11.0,90,0.00,,---,0.50,VWS V14.01,2013-02-10 17:31:00,
2013-02-10 11:36:00,49.0,46.2,29.59,WSW,239,2.0,11.0,90,0.00,,---,0.50,VWS V14.01,2013-02-10 17:36:00,
2013-02-10 11:41:00,49.0,46.2,29.59,South,182,2.0,14.0,90,0.00,,---,0.50,VWS V14.01,2013-02-10 17:41:00,
2013-02-10 11:46:00,48.9,46.1,29.58,South,169,0.0,14.0,90,0.00,,---,0.50,VWS V14.01,2013-02-10 17:46:00,
2013-02-10 11:51:00,48.9,46.1,29.58,SSE,166,4.0,14.0,90,0.00,,---,0.50,VWS V14.01,2013-02-10 17:51:00,
2013-02-10 11:56:00,48.8,46.0,29.58,SSW,201,11.0,14.0,90,0.00,,---,0.50,VWS V14.01,2013-02-10 17:56:00,
2013-02-10 12:00:00,48.7,45.9,29.57,SW,234,4.0,17.0,90,0.00,,---,0.50,VWS V14.01,2013-02-10 18:00:00,
2013-02-10 12:01:00,48.7,45.9,29.57,SSW,197,7.0,8.0,90,0.00,,---,0.50,VWS V14.01,2013-02-10 18:01:00,
2013-02-10 12:06:00,48.6,45.8,29.57,South,173,3.0,9.0,90,0.00,,---,0.50,VWS V14.01,2013-02-10 18:06:00,
2013-02-10 12:11:00,48.5,46.0,29.56,SSE,159,2.0,11.0,91,0.00,,---,0.50,VWS V14.01,2013-02-10 18:11:00,
2013-02-10 12:16:00,48.5,46.0,29.56,SSW,201,5.0,11.0,91,0.00,,---,0.50,VWS V14.01,2013-02-10 18:16:00,
2013-02-10 12:21:00,48.6,46.1,29.56,SW,219,2.0,11.0,91,0.00,,---,0.50,VWS V14.01,2013-02-10 18:21:00,
2013-02-10 12:26:00,48.7,46.2,29.54,SSE,163,0.0,11.0,91,0.00,,---,0.50,VWS V14.01,2013-02-10 18:26:00,
2013-02-10 12:30:00,48.8,46.3,29.54,SSE,159,4.0,11.0,91,0.00,,---,0.50,VWS V14.01,2013-02-10 18:30:00,
2013-02-10 12:31:00,48.8,46.3,29.53,SE,146,2.0,8.0,91,0.00,,---,0.50,VWS V14.01,2013-02-10 18:31:00,
2013-02-10 12:36:00,48.8,46.3,29.53,East,88,3.0,15.0,91,0.00,,---,0.50,VWS V14.01,2013-02-10 18:36:00,
2013-02-10 12:41:00,48.9,46.4,29.52,South,172,3.0,15.0,91,0.00,,---,0.50,VWS V14.01,2013-02-10 18:41:00,
2013-02-10 12:46:00,49.0,46.8,29.52,South,184,2.0,15.0,92,0.00,,---,0.50,VWS V14.01,2013-02-10 18:46:00,
2013-02-10 12:51:00,49.1,46.9,29.52,South,180,1.0,15.0,92,0.00,,---,0.50,VWS V14.01,2013-02-10 18:51:00,
2013-02-10 12:56:00,49.1,46.9,29.52,SSW,200,5.0,15.0,92,0.00,,---,0.50,VWS V14.01,2013-02-10 18:56:00,
2013-02-10 13:00:00,49.1,46.9,29.51,South,188,11.0,15.0,92,0.00,,---,0.50,VWS V14.01,2013-02-10 19:00:00,
2013-02-10 13:01:00,49.1,46.9,29.51,SSW,202,1.0,11.0,92,0.00,,---,0.50,VWS V14.01,2013-02-10 19:01:00,
2013-02-10 13:06:00,49.2,47.0,29.52,SSW,198,4.0,11.0,92,0.00,,---,0.50,VWS V14.01,2013-02-10 19:06:00,
2013-02-10 13:11:00,49.2,47.0,29.52,SSW,195,4.0,11.0,92,0.00,,---,0.50,VWS V14.01,2013-02-10 19:11:00,
2013-02-10 13:16:00,49.1,46.9,29.52,South,174,4.0,11.0,92,0.00,,---,0.50,VWS V14.01,2013-02-10 19:16:00,
2013-02-10 13:21:00,49.1,47.2,29.52,South,178,5.0,11.0,93,0.00,,---,0.50,VWS V14.01,2013-02-10 19:21:00,
2013-02-10 13:26:00,49.2,47.3,29.52,South,179,2.0,11.0,93,0.00,,---,0.50,VWS V14.01,2013-02-10 19:26:00,
2013-02-10 13:30:00,49.2,47.3,29.52,South,177,1.0,11.0,93,0.00,,---,0.50,VWS V14.01,2013-02-10 19:30:00,
2013-02-10 13:31:00,49.2,47.3,29.52,South,177,3.0,6.0,93,0.00,,---,0.50,VWS V14.01,2013-02-10 19:31:00,
2013-02-10 13:36:00,49.2,47.3,29.52,SSW,205,1.0,6.0,93,0.00,,---,0.50,VWS V14.01,2013-02-10 19:36:00,
2013-02-10 13:41:00,49.3,47.4,29.52,South,185,3.0,6.0,93,0.00,,---,0.50,VWS V14.01,2013-02-10 19:41:00,
2013-02-10 13:46:00,49.3,47.4,29.52,SSW,197,3.0,6.0,93,0.00,,---,0.50,VWS V14.01,2013-02-10 19:46:00,
2013-02-10 13:51:00,49.4,47.8,29.52,South,176,1.0,6.0,94,0.00,,---,0.50,VWS V14.01,2013-02-10 19:51:00,
2013-02-10 13:56:00,49.5,47.8,29.51,SSW,195,4.0,6.0,94,0.00,,---,0.50,VWS V14.01,2013-02-10 19:56:00,
2013-02-10 14:00:00,49.6,48.0,29.51,South,179,1.0,6.0,94,0.00,,---,0.50,VWS V14.01,2013-02-10 20:00:00,
2013-02-10 14:01:00,49.6,48.0,29.51,South,169,1.0,3.0,94,0.00,,---,0.50,VWS V14.01,2013-02-10 20:01:00,
2013-02-10 14:06:00,49.7,48.3,29.51,SSE,163,4.0,6.0,95,0.00,,---,0.50,VWS V14.01,2013-02-10 20:06:00,
2013-02-10 14:11:00,50.0,48.6,29.50,South,185,1.0,6.0,95,0.00,,---,0.50,VWS V14.01,2013-02-10 20:11:00,
2013-02-10 14:16:00,50.3,49.2,29.50,SSW,193,2.0,6.0,96,0.00,,---,0.50,VWS V14.01,2013-02-10 20:16:00,
2013-02-10 14:21:00,50.5,49.4,29.50,South,176,4.0,6.0,96,0.01,,---,0.51,VWS V14.01,2013-02-10 20:21:00,
2013-02-10 14:26:00,50.8,49.7,29.50,SSW,213,2.0,7.0,96,0.01,,---,0.51,VWS V14.01,2013-02-10 20:26:00,
2013-02-10 14:30:00,50.9,49.8,29.50,South,169,3.0,7.0,96,0.01,,---,0.51,VWS V14.01,2013-02-10 20:30:00,
2013-02-10 14:31:00,51.0,49.9,29.50,South,183,3.0,6.0,96,0.01,,---,0.51,VWS V14.01,2013-02-10 20:31:00,
2013-02-10 14:36:00,51.6,50.5,29.49,SSW,194,5.0,6.0,96,0.01,,---,0.51,VWS V14.01,2013-02-10 20:36:00,
2013-02-10 14:41:00,51.9,50.8,29.50,South,177,3.0,6.0,96,0.01,,---,0.51,VWS V14.01,2013-02-10 20:41:00,
2013-02-10 14:46:00,52.1,51.0,29.50,SSE,167,1.0,6.0,96,0.01,,---,0.51,VWS V14.01,2013-02-10 20:46:00,
2013-02-10 14:51:00,52.2,51.1,29.50,SSE,163,4.0,11.0,96,0.01,,---,0.51,VWS V14.01,2013-02-10 20:51:00,
2013-02-10 14:56:00,52.3,51.2,29.50,South,190,4.0,11.0,96,0.01,,---,0.51,VWS V14.01,2013-02-10 20:56:00,
2013-02-10 15:00:00,52.3,51.2,29.50,SSE,155,5.0,11.0,96,0.01,,---,0.51,VWS V14.01,2013-02-10 21:00:00,
2013-02-10 15:01:00,52.3,51.2,29.50,South,185,3.0,5.0,96,0.01,,---,0.51,VWS V14.01,2013-02-10 21:01:00,
2013-02-10 15:06:00,52.4,51.3,29.50,South,180,3.0,6.0,96,0.01,,---,0.51,VWS V14.01,2013-02-10 21:06:00,
2013-02-10 15:11:00,52.5,51.4,29.50,SSE,165,1.0,6.0,96,0.01,,---,0.51,VWS V14.01,2013-02-10 21:11:00,
2013-02-10 15:16:00,52.7,51.6,29.50,South,179,3.0,6.0,96,0.01,,---,0.51,VWS V14.01,2013-02-10 21:16:00,
2013-02-10 15:21:00,53.0,51.9,29.50,SSW,213,3.0,6.0,96,0.01,,---,0.51,VWS V14.01,2013-02-10 21:21:00,
2013-02-10 15:26:00,53.4,52.3,29.50,SE,146,4.0,8.0,96,0.01,,---,0.51,VWS V14.01,2013-02-10 21:26:00,
2013-02-10 15:30:00,53.6,52.2,29.50,SSW,194,6.0,8.0,95,0.01,,---,0.51,VWS V14.01,2013-02-10 21:30:00,
2013-02-10 15:31:00,53.7,52.3,29.50,SSE,156,3.0,8.0,95,0.00,,---,0.51,VWS V14.01,2013-02-10 21:31:00,
2013-02-10 15:36:00,54.2,52.5,29.50,West,261,6.0,9.0,94,0.00,,---,0.51,VWS V14.01,2013-02-10 21:36:00,
2013-02-10 15:41:00,54.7,53.0,29.50,SSE,163,6.0,10.0,94,0.00,,---,0.51,VWS V14.01,2013-02-10 21:41:00,
2013-02-10 15:46:00,55.0,52.7,29.50,South,187,2.0,10.0,92,0.00,,---,0.51,VWS V14.01,2013-02-10 21:46:00,
2013-02-10 15:51:00,55.2,52.9,29.50,SW,222,6.0,10.0,92,0.00,,---,0.51,VWS V14.01,2013-02-10 21:51:00,
2013-02-10 15:56:00,55.4,52.8,29.51,SSE,159,3.0,11.0,91,0.00,,---,0.51,VWS V14.01,2013-02-10 21:56:00,
2013-02-10 16:00:00,55.5,52.9,29.51,SSE,167,8.0,11.0,91,0.00,,---,0.51,VWS V14.01,2013-02-10 22:00:00,
2013-02-10 16:01:00,55.5,52.9,29.51,SSE,168,10.0,10.0,91,0.00,,---,0.51,VWS V14.01,2013-02-10 22:01:00,
2013-02-10 16:06:00,55.7,52.8,29.51,SSW,194,6.0,11.0,90,0.00,,---,0.51,VWS V14.01,2013-02-10 22:06:00,
2013-02-10 16:11:00,55.9,53.0,29.50,SSE,167,5.0,11.0,90,0.00,,---,0.51,VWS V14.01,2013-02-10 22:11:00,
2013-02-10 16:16:00,56.1,52.9,29.51,SSE,168,2.0,11.0,89,0.00,,---,0.51,VWS V14.01,2013-02-10 22:16:00,
2013-02-10 16:21:00,56.2,53.0,29.51,SSW,195,7.0,11.0,89,0.00,,---,0.51,VWS V14.01,2013-02-10 22:21:00,
2013-02-10 16:26:00,56.3,52.8,29.51,SSE,160,4.0,11.0,88,0.00,,---,0.51,VWS V14.01,2013-02-10 22:26:00,
2013-02-10 16:30:00,56.2,52.7,29.51,South,169,4.0,11.0,88,0.00,,---,0.51,VWS V14.01,2013-02-10 22:30:00,
2013-02-10 16:31:00,56.2,52.7,29.51,SSW,199,3.0,5.0,88,0.00,,---,0.51,VWS V14.01,2013-02-10 22:31:00,
2013-02-10 16:36:00,56.4,52.9,29.50,South,179,4.0,9.0,88,0.00,,---,0.51,VWS V14.01,2013-02-10 22:36:00,
2013-02-10 16:41:00,56.4,52.6,29.51,SSE,158,5.0,10.0,87,0.00,,---,0.51,VWS V14.01,2013-02-10 22:41:00,
2013-02-10 16:46:00,56.2,52.4,29.51,South,183,6.0,10.0,87,0.00,,---,0.51,VWS V14.01,2013-02-10 22:46:00,
2013-02-10 16:51:00,56.3,52.8,29.51,SSE,167,3.0,10.0,88,0.00,,---,0.51,VWS V14.01,2013-02-10 22:51:00,
2013-02-10 16:56:00,56.3,52.8,29.51,South,186,4.0,10.0,88,0.00,,---,0.51,VWS V14.01,2013-02-10 22:56:00,
2013-02-10 17:00:00,56.2,52.4,29.51,SSW,195,10.0,10.0,87,0.00,,---,0.51,VWS V14.01,2013-02-10 23:00:00,
2013-02-10 17:01:00,56.3,52.5,29.51,SSW,198,7.0,12.0,87,0.00,,---,0.51,VWS V14.01,2013-02-10 23:01:00,
2013-02-10 17:06:00,56.3,52.5,29.51,SE,146,5.0,12.0,87,0.00,,---,0.51,VWS V14.01,2013-02-10 23:06:00,
2013-02-10 17:11:00,56.4,52.6,29.51,South,184,1.0,12.0,87,0.00,,---,0.51,VWS V14.01,2013-02-10 23:11:00,
2013-02-10 17:16:00,56.4,52.6,29.51,South,178,8.0,12.0,87,0.00,,---,0.51,VWS V14.01,2013-02-10 23:16:00,
2013-02-10 17:21:00,56.4,52.6,29.51,SSW,203,6.0,12.0,87,0.00,,---,0.51,VWS V14.01,2013-02-10 23:21:00,
2013-02-10 17:26:00,56.3,52.5,29.52,SSE,167,3.0,12.0,87,0.00,,---,0.51,VWS V14.01,2013-02-10 23:26:00,
2013-02-10 17:30:00,56.2,52.4,29.52,SSW,209,6.0,12.0,87,0.00,,---,0.51,VWS V14.01,2013-02-10 23:30:00,
2013-02-10 17:31:00,56.1,52.6,29.52,SSW,207,3.0,7.0,88,0.00,,---,0.51,VWS V14.01,2013-02-10 23:31:00,
2013-02-10 17:36:00,55.9,52.4,29.52,SSW,197,7.0,10.0,88,0.00,,---,0.51,VWS V14.01,2013-02-10 23:36:00,
2013-02-10 17:41:00,55.8,52.6,29.53,South,186,3.0,10.0,89,0.00,,---,0.51,VWS V14.01,2013-02-10 23:41:00,
2013-02-10 17:46:00,55.6,52.4,29.53,South,190,5.0,10.0,89,0.00,,---,0.51,VWS V14.01,2013-02-10 23:46:00,
2013-02-10 17:51:00,55.5,52.6,29.53,SSW,192,5.0,10.0,90,0.00,,---,0.51,VWS V14.01,2013-02-10 23:51:00,
2013-02-10 17:56:00,55.2,52.3,29.54,South,171,1.0,10.0,90,0.00,,---,0.51,VWS V14.01,2013-02-10 23:56:00,
2013-02-10 18:00:00,55.1,52.2,29.54,South,186,2.0,10.0,90,0.00,,---,0.51,VWS V14.01,2013-02-11 00:00:00,
2013-02-10 18:01:00,55.1,52.2,29.54,SSW,207,1.0,3.0,90,0.00,,---,0.51,VWS V14.01,2013-02-11 00:01:00,
2013-02-10 18:06:00,54.9,52.0,29.54,South,188,3.0,4.0,90,0.00,,---,0.51,VWS V14.01,2013-02-11 00:06:00,
2013-02-10 18:11:00,54.7,52.1,29.54,SSW,204,1.0,4.0,91,0.00,,---,0.51,VWS V14.01,2013-02-11 00:11:00,
2013-02-10 18:16:00,54.5,51.9,29.55,South,187,2.0,4.0,91,0.00,,---,0.51,VWS V14.01,2013-02-11 00:16:00,
2013-02-10 18:21:00,54.4,51.8,29.54,South,178,0.0,5.0,91,0.00,,---,0.51,VWS V14.01,2013-02-11 00:21:00,
2013-02-10 18:26:00,54.2,51.9,29.55,South,188,1.0,5.0,92,0.00,,---,0.51,VWS V14.01,2013-02-11 00:26:00,
2013-02-10 18:30:00,54.0,51.7,29.55,South,187,1.0,5.0,92,0.00,,---,0.51,VWS V14.01,2013-02-11 00:30:00,
2013-02-10 18:31:00,54.0,51.7,29.55,South,185,3.0,3.0,92,0.00,,---,0.51,VWS V14.01,2013-02-11 00:31:00,
2013-02-10 18:36:00,53.9,51.6,29.55,South,191,0.0,3.0,92,0.00,,---,0.51,VWS V14.01,2013-02-11 00:36:00,
2013-02-10 18:41:00,53.4,51.1,29.55,South,189,0.0,3.0,92,0.00,,---,0.51,VWS V14.01,2013-02-11 00:41:00,
2013-02-10 18:46:00,53.1,51.1,29.55,South,189,1.0,3.0,93,0.00,,---,0.51,VWS V14.01,2013-02-11 00:46:00,
2013-02-10 18:51:00,53.1,51.1,29.56,SSW,192,1.0,4.0,93,0.00,,---,0.51,VWS V14.01,2013-02-11 00:51:00,
2013-02-10 18:56:00,52.8,50.8,29.56,SSW,192,0.0,4.0,93,0.00,,---,0.51,VWS V14.01,2013-02-11 00:56:00,
2013-02-10 19:00:00,52.5,50.5,29.56,SSW,192,0.0,4.0,93,0.00,,---,0.51,VWS V14.01,2013-02-11 01:00:00,
2013-02-10 19:01:00,52.4,50.4,29.56,SSW,192,0.0,1.0,93,0.00,,---,0.51,VWS V14.01,2013-02-11 01:01:00,
2013-02-10 19:06:00,52.1,50.4,29.56,SSW,192,0.0,1.0,94,0.00,,---,0.51,VWS V14.01,2013-02-11 01:06:00,
2013-02-10 19:11:00,51.4,49.7,29.56,SSW,192,0.0,2.0,94,0.00,,---,0.51,VWS V14.01,2013-02-11 01:11:00,
2013-02-10 19:16:00,51.0,49.3,29.56,SSW,192,0.0,2.0,94,0.00,,---,0.51,VWS V14.01,2013-02-11 01:16:00,
2013-02-10 19:21:00,51.5,49.8,29.56,SW,226,0.0,3.0,94,0.00,,---,0.51,VWS V14.01,2013-02-11 01:21:00,
2013-02-10 19:26:00,51.6,49.4,29.56,South,189,2.0,7.0,92,0.00,,---,0.51,VWS V14.01,2013-02-11 01:26:00,
2013-02-10 19:30:00,51.7,48.3,29.56,SSW,203,1.0,7.0,88,0.00,,---,0.51,VWS V14.01,2013-02-11 01:30:00,
2013-02-10 19:31:00,51.8,48.1,29.57,SSW,198,3.0,3.0,87,0.00,,---,0.51,VWS V14.01,2013-02-11 01:31:00,
2013-02-10 19:36:00,52.6,45.6,29.57,SSW,197,1.0,3.0,77,0.00,,---,0.51,VWS V14.01,2013-02-11 01:36:00,
2013-02-10 19:41:00,53.1,42.8,29.57,South,191,3.0,5.0,68,0.00,,---,0.51,VWS V14.01,2013-02-11 01:41:00,
2013-02-10 19:46:00,53.9,40.3,29.57,West,274,2.0,6.0,60,0.00,,---,0.51,VWS V14.01,2013-02-11 01:46:00,
2013-02-10 19:51:00,54.5,38.2,29.58,SW,233,1.0,6.0,54,0.00,,---,0.51,VWS V14.01,2013-02-11 01:51:00,
2013-02-10 19:56:00,54.9,37.1,29.58,SSW,195,3.0,6.0,51,0.00,,---,0.51,VWS V14.01,2013-02-11 01:56:00,
2013-02-10 20:00:00,54.9,36.6,29.58,SSW,207,1.0,6.0,50,0.00,,---,0.51,VWS V14.01,2013-02-11 02:00:00,
2013-02-10 20:01:00,54.8,36.5,29.58,North,355,4.0,4.0,50,0.00,,---,0.51,VWS V14.01,2013-02-11 02:01:00,
2013-02-10 20:06:00,54.8,35.0,29.58,SE,128,4.0,8.0,47,0.00,,---,0.51,VWS V14.01,2013-02-11 02:06:00,
2013-02-10 20:11:00,54.8,35.5,29.59,SW,217,4.0,8.0,48,0.00,,---,0.51,VWS V14.01,2013-02-11 02:11:00,
2013-02-10 20:16:00,54.9,34.5,29.59,SSE,161,3.0,16.0,46,0.00,,---,0.51,VWS V14.01,2013-02-11 02:16:00,
2013-02-10 20:21:00,55.3,34.3,29.59,SW,223,6.0,16.0,45,0.00,,---,0.51,VWS V14.01,2013-02-11 02:21:00,
2013-02-10 20:26:00,55.1,33.6,29.59,SSW,198,2.0,16.0,44,0.00,,---,0.51,VWS V14.01,2013-02-11 02:26:00,
2013-02-10 20:30:00,55.1,33.6,29.59,SW,226,2.0,16.0,44,0.00,,---,0.51,VWS V14.01,2013-02-11 02:30:00,
2013-02-10 20:31:00,55.0,33.5,29.59,WSW,242,1.0,5.0,44,0.00,,---,0.51,VWS V14.01,2013-02-11 02:31:00,
2013-02-10 20:36:00,54.9,32.8,29.60,South,178,3.0,8.0,43,0.00,,---,0.51,VWS V14.01,2013-02-11 02:36:00,
2013-02-10 20:41:00,54.9,33.4,29.60,NW,321,6.0,8.0,44,0.00,,---,0.51,VWS V14.01,2013-02-11 02:41:00,
2013-02-10 20:46:00,54.8,33.3,29.60,South,181,4.0,8.0,44,0.00,,---,0.51,VWS V14.01,2013-02-11 02:46:00,
2013-02-10 20:51:00,54.7,33.2,29.60,WNW,294,1.0,8.0,44,0.00,,---,0.51,VWS V14.01,2013-02-11 02:51:00,
2013-02-10 20:56:00,54.4,33.5,29.60,North,360,2.0,14.0,45,0.00,,---,0.51,VWS V14.01,2013-02-11 02:56:00,
2013-02-10 21:00:00,54.5,33.6,29.60,SSW,208,2.0,14.0,45,0.00,,---,0.51,VWS V14.01,2013-02-11 03:00:00,
2013-02-10 21:01:00,54.5,33.0,29.60,SW,224,2.0,11.0,44,0.00,,---,0.51,VWS V14.01,2013-02-11 03:01:00,
2013-02-10 21:06:00,54.4,33.0,29.61,SSW,205,4.0,11.0,44,0.00,,---,0.51,VWS V14.01,2013-02-11 03:06:00,
2013-02-10 21:11:00,54.3,33.4,29.61,NNW,340,2.0,11.0,45,0.00,,---,0.51,VWS V14.01,2013-02-11 03:11:00,
2013-02-10 21:16:00,54.0,33.7,29.61,SSE,163,2.0,11.0,46,0.00,,---,0.51,VWS V14.01,2013-02-11 03:16:00,
2013-02-10 21:21:00,54.0,33.2,29.61,SSW,200,4.0,11.0,45,0.00,,---,0.51,VWS V14.01,2013-02-11 03:21:00,
2013-02-10 21:26:00,54.0,33.2,29.61,South,186,5.0,12.0,45,0.00,,---,0.51,VWS V14.01,2013-02-11 03:26:00,
2013-02-10 21:30:00,53.9,33.1,29.61,West,267,12.0,12.0,45,0.00,,---,0.51,VWS V14.01,2013-02-11 03:30:00,
2013-02-10 21:31:00,53.9,33.1,29.61,SSE,156,5.0,12.0,45,0.00,,---,0.51,VWS V14.01,2013-02-11 03:31:00,
2013-02-10 21:36:00,53.9,32.5,29.61,WNW,298,2.0,12.0,44,0.00,,---,0.51,VWS V14.01,2013-02-11 03:36:00,
2013-02-10 21:41:00,53.7,32.9,29.62,SW,229,1.0,17.0,45,0.00,,---,0.51,VWS V14.01,2013-02-11 03:41:00,
2013-02-10 21:46:00,53.3,32.5,29.61,SSE,165,1.0,17.0,45,0.00,,---,0.51,VWS V14.01,2013-02-11 03:46:00,
2013-02-10 21:51:00,53.1,32.9,29.61,SSW,197,0.0,17.0,46,0.00,,---,0.51,VWS V14.01,2013-02-11 03:51:00,
2013-02-10 21:56:00,52.9,32.7,29.61,West,265,1.0,17.0,46,0.00,,---,0.51,VWS V14.01,2013-02-11 03:56:00,
2013-02-10 22:05:00,52.7,32.5,29.61,West,269,0.0,0.0,46,0.00,,---,0.51,VWS V14.01,2013-02-11 04:05:00,
2013-02-10 22:10:00,52.4,32.8,29.61,NW,319,3.0,9.0,47,0.00,,---,0.51,VWS V14.01,2013-02-11 04:10:00,
2013-02-10 22:15:00,52.4,32.8,29.61,South,186,2.0,9.0,47,0.00,,---,0.51,VWS V14.01,2013-02-11 04:15:00,
2013-02-10 22:19:00,52.3,32.7,29.62,WNW,290,5.0,9.0,47,0.00,,---,0.51,VWS V14.01,2013-02-11 04:19:00,
2013-02-10 22:24:00,52.2,32.6,29.62,South,175,2.0,12.0,47,0.00,,---,0.51,VWS V14.01,2013-02-11 04:24:00,
2013-02-10 22:29:00,51.9,32.8,29.62,South,182,0.0,2.0,48,0.00,,---,0.51,VWS V14.01,2013-02-11 04:29:00,
2013-02-10 22:34:00,51.8,32.2,29.62,SSW,198,1.0,7.0,47,0.00,,---,0.51,VWS V14.01,2013-02-11 04:34:00,
2013-02-10 22:39:00,51.7,32.7,29.62,South,186,5.0,10.0,48,0.00,,---,0.51,VWS V14.01,2013-02-11 04:39:00,
2013-02-10 22:44:00,51.7,32.7,29.62,South,175,4.0,12.0,48,0.00,,---,0.51,VWS V14.01,2013-02-11 04:44:00,
2013-02-10 22:49:00,51.7,32.7,29.63,South,178,3.0,12.0,48,0.00,,---,0.51,VWS V14.01,2013-02-11 04:49:00,
2013-02-10 22:54:00,51.4,32.4,29.63,SSW,202,2.0,14.0,48,0.00,,---,0.51,VWS V14.01,2013-02-11 04:54:00,
2013-02-10 22:59:00,51.3,32.3,29.64,SSW,194,2.0,4.0,48,0.00,,---,0.51,VWS V14.01,2013-02-11 04:59:00,
2013-02-10 23:00:00,51.3,32.3,29.64,SW,219,2.0,4.0,48,0.00,,---,0.51,VWS V14.01,2013-02-11 05:00:00,
2013-02-10 23:05:00,51.0,32.5,29.64,SSW,206,1.0,10.0,49,0.00,,---,0.51,VWS V14.01,2013-02-11 05:05:00,
2013-02-10 23:10:00,50.7,32.2,29.64,NE,39,7.0,13.0,49,0.00,,---,0.51,VWS V14.01,2013-02-11 05:10:00,
2013-02-10 23:15:00,50.6,32.7,29.65,WSW,257,5.0,13.0,50,0.00,,---,0.51,VWS V14.01,2013-02-11 05:15:00,
2013-02-10 23:20:00,50.3,32.9,29.65,SSE,167,4.0,13.0,51,0.00,,---,0.51,VWS V14.01,2013-02-11 05:20:00,
2013-02-10 23:25:00,50.0,33.1,29.65,NNE,24,3.0,13.0,52,0.00,,---,0.51,VWS V14.01,2013-02-11 05:25:00,
2013-02-10 23:30:00,49.7,32.8,29.65,South,185,2.0,2.0,52,0.00,,---,0.51,VWS V14.01,2013-02-11 05:30:00,
2013-02-10 23:35:00,49.5,33.1,29.66,SSE,168,0.0,9.0,53,0.00,,---,0.51,VWS V14.01,2013-02-11 05:35:00,
2013-02-10 23:40:00,49.3,33.4,29.66,South,189,4.0,10.0,54,0.00,,---,0.51,VWS V14.01,2013-02-11 05:40:00,
2013-02-10 23:45:00,49.1,33.2,29.67,WNW,291,6.0,10.0,54,0.00,,---,0.51,VWS V14.01,2013-02-11 05:45:00,
2013-02-10 23:50:00,48.7,33.3,29.67,SSW,201,4.0,10.0,55,0.00,,---,0.51,VWS V14.01,2013-02-11 05:50:00,
2013-02-10 23:55:00,48.1,33.6,29.68,SSW,194,2.0,11.0,57,0.00,,---,0.51,VWS V14.01,2013-02-11 05:55:00,